sensor_id;sensor_type;location;lat;lon;timestamp;pressure;altitude;pressure_sealevel;temperature;humidity
15382;BME280;7789;51.364;12.358;2024-02-16T00:02:18;100281.88;;;12.25;100.00
15382;BME280;7789;51.364;12.358;2024-02-16T00:07:23;100268.50;;;12.28;100.00
15382;BME280;7789;51.364;12.358;2024-02-16T00:12:26;100262.16;;;12.31;100.00
15382;BME280;7789;51.364;12.358;2024-02-16T00:17:32;100267.69;;;12.37;100.00
15382;BME280;7789;51.364;12.358;2024-02-16T00:22:36;100265.47;;;12.42;100.00
15382;BME280;7789;51.364;12.358;2024-02-16T00:27:40;100267.66;;;12.47;100.00
15382;BME280;7789;51.364;12.358;2024-02-16T00:32:46;100261.59;;;12.46;100.00
15382;BME280;7789;51.364;12.358;2024-02-16T00:37:50;100264.06;;;12.48;100.00
15382;BME280;7789;51.364;12.358;2024-02-16T00:42:54;100273.03;;;12.45;100.00
15382;BME280;7789;51.364;12.358;2024-02-16T00:48:00;100270.56;;;12.44;100.00
15382;BME280;7789;51.364;12.358;2024-02-16T00:53:05;100271.78;;;12.40;100.00
15382;BME280;7789;51.364;12.358;2024-02-16T00:58:10;100269.47;;;12.37;100.00
15382;BME280;7789;51.364;12.358;2024-02-16T01:03:15;100267.53;;;12.29;100.00
15382;BME280;7789;51.364;12.358;2024-02-16T01:08:19;100266.16;;;12.25;100.00
15382;BME280;7789;51.364;12.358;2024-02-16T01:13:26;100258.16;;;12.27;100.00
15382;BME280;7789;51.364;12.358;2024-02-16T01:18:31;100265.88;;;12.28;100.00
15382;BME280;7789;51.364;12.358;2024-02-16T01:23:36;100268.38;;;12.30;100.00
15382;BME280;7789;51.364;12.358;2024-02-16T01:28:40;100272.09;;;12.27;100.00
15382;BME280;7789;51.364;12.358;2024-02-16T01:33:47;100262.84;;;12.23;100.00
15382;BME280;7789;51.364;12.358;2024-02-16T01:38:51;100258.03;;;12.19;100.00
15382;BME280;7789;51.364;12.358;2024-02-16T01:43:55;100259.56;;;12.12;100.00
15382;BME280;7789;51.364;12.358;2024-02-16T01:49:00;100244.34;;;12.06;100.00
15382;BME280;7789;51.364;12.358;2024-02-16T01:54:04;100244.91;;;12.00;100.00
15382;BME280;7789;51.364;12.358;2024-02-16T01:59:08;100238.72;;;12.01;100.00
15382;BME280;7789;51.364;12.358;2024-02-16T02:04:13;100240.66;;;11.99;100.00
15382;BME280;7789;51.364;12.358;2024-02-16T02:09:18;100224.09;;;11.98;100.00
15382;BME280;7789;51.364;12.358;2024-02-16T02:14:22;100207.41;;;11.99;100.00
15382;BME280;7789;51.364;12.358;2024-02-16T02:19:29;100223.56;;;12.04;100.00
15382;BME280;7789;51.364;12.358;2024-02-16T02:24:35;100211.53;;;12.11;100.00
15382;BME280;7789;51.364;12.358;2024-02-16T02:29:38;100210.28;;;12.15;100.00
15382;BME280;7789;51.364;12.358;2024-02-16T02:34:42;100202.00;;;12.20;100.00
15382;BME280;7789;51.364;12.358;2024-02-16T02:39:49;100201.59;;;12.24;100.00
15382;BME280;7789;51.364;12.358;2024-02-16T02:44:52;100203.53;;;12.22;100.00
15382;BME280;7789;51.364;12.358;2024-02-16T02:49:56;100191.00;;;12.26;100.00
15382;BME280;7789;51.364;12.358;2024-02-16T02:55:01;100185.59;;;12.27;100.00
15382;BME280;7789;51.364;12.358;2024-02-16T03:00:06;100187.25;;;12.28;100.00
15382;BME280;7789;51.364;12.358;2024-02-16T03:05:13;100181.88;;;12.30;100.00
15382;BME280;7789;51.364;12.358;2024-02-16T03:10:19;100193.84;;;12.32;100.00
15382;BME280;7789;51.364;12.358;2024-02-16T03:15:25;100188.59;;;12.32;100.00
15382;BME280;7789;51.364;12.358;2024-02-16T03:20:29;100188.59;;;12.32;100.00
15382;BME280;7789;51.364;12.358;2024-02-16T03:25:34;100190.00;;;12.36;100.00
15382;BME280;7789;51.364;12.358;2024-02-16T03:30:37;100191.78;;;12.36;100.00
15382;BME280;7789;51.364;12.358;2024-02-16T03:35:41;100200.34;;;12.38;100.00
15382;BME280;7789;51.364;12.358;2024-02-16T03:40:46;100204.59;;;12.39;100.00
15382;BME280;7789;51.364;12.358;2024-02-16T03:45:49;100196.22;;;12.35;100.00
15382;BME280;7789;51.364;12.358;2024-02-16T03:50:53;100183.25;;;12.34;100.00
15382;BME280;7789;51.364;12.358;2024-02-16T03:55:58;100185.72;;;12.35;100.00
15382;BME280;7789;51.364;12.358;2024-02-16T04:01:02;100177.72;;;12.37;100.00
15382;BME280;7789;51.364;12.358;2024-02-16T04:06:05;100187.09;;;12.39;100.00
15382;BME280;7789;51.364;12.358;2024-02-16T04:11:12;100192.06;;;12.42;100.00
15382;BME280;7789;51.364;12.358;2024-02-16T04:16:17;100184.75;;;12.46;100.00
15382;BME280;7789;51.364;12.358;2024-02-16T04:21:24;100186.22;;;12.48;100.00
15382;BME280;7789;51.364;12.358;2024-02-16T04:26:29;100179.88;;;12.51;100.00
15382;BME280;7789;51.364;12.358;2024-02-16T04:31:32;100179.75;;;12.52;100.00
15382;BME280;7789;51.364;12.358;2024-02-16T04:36:36;100181.53;;;12.52;100.00
15382;BME280;7789;51.364;12.358;2024-02-16T04:41:41;100179.59;;;12.54;100.00
15382;BME280;7789;51.364;12.358;2024-02-16T04:46:45;100178.09;;;12.51;100.00
15382;BME280;7789;51.364;12.358;2024-02-16T04:51:48;100178.81;;;12.44;100.00
15382;BME280;7789;51.364;12.358;2024-02-16T04:56:53;100171.06;;;12.42;100.00
15382;BME280;7789;51.364;12.358;2024-02-16T05:01:56;100170.69;;;12.37;100.00
15382;BME280;7789;51.364;12.358;2024-02-16T05:07:00;100170.00;;;12.35;100.00
15382;BME280;7789;51.364;12.358;2024-02-16T05:12:06;100181.47;;;12.34;100.00
15382;BME280;7789;51.364;12.358;2024-02-16T05:17:10;100168.47;;;12.33;100.00
15382;BME280;7789;51.364;12.358;2024-02-16T05:22:15;100166.53;;;12.35;100.00
15382;BME280;7789;51.364;12.358;2024-02-16T05:27:21;100158.53;;;12.36;100.00
15382;BME280;7789;51.364;12.358;2024-02-16T05:32:26;100172.06;;;12.41;100.00
15382;BME280;7789;51.364;12.358;2024-02-16T05:37:29;100161.81;;;12.48;100.00
15382;BME280;7789;51.364;12.358;2024-02-16T05:42:35;100161.81;;;12.48;100.00
15382;BME280;7789;51.364;12.358;2024-02-16T05:47:39;100156.72;;;12.46;100.00
15382;BME280;7789;51.364;12.358;2024-02-16T05:52:43;100149.25;;;12.42;100.00
15382;BME280;7789;51.364;12.358;2024-02-16T05:57:47;100149.44;;;12.40;100.00
15382;BME280;7789;51.364;12.358;2024-02-16T06:02:51;100141.41;;;12.42;100.00
15382;BME280;7789;51.364;12.358;2024-02-16T06:07:54;100136.03;;;12.43;100.00
15382;BME280;7789;51.364;12.358;2024-02-16T06:13:00;100144.44;;;12.47;100.00
15382;BME280;7789;51.364;12.358;2024-02-16T06:18:04;100145.25;;;12.47;100.00
15382;BME280;7789;51.364;12.358;2024-02-16T06:23:08;100131.84;;;12.50;100.00
15382;BME280;7789;51.364;12.358;2024-02-16T06:28:13;100134.75;;;12.47;100.00
15382;BME280;7789;51.364;12.358;2024-02-16T06:33:17;100153.13;;;12.47;100.00
15382;BME280;7789;51.364;12.358;2024-02-16T06:38:20;100155.91;;;12.46;100.00
15382;BME280;7789;51.364;12.358;2024-02-16T06:43:25;100151.47;;;12.46;100.00
15382;BME280;7789;51.364;12.358;2024-02-16T06:48:28;100155.75;;;12.47;100.00
15382;BME280;7789;51.364;12.358;2024-02-16T06:53:32;100151.88;;;12.51;100.00
15382;BME280;7789;51.364;12.358;2024-02-16T06:58:37;100147.72;;;12.58;100.00
15382;BME280;7789;51.364;12.358;2024-02-16T07:03:41;100146.75;;;12.59;100.00
15382;BME280;7789;51.364;12.358;2024-02-16T07:08:46;100147.13;;;12.64;100.00
15382;BME280;7789;51.364;12.358;2024-02-16T07:13:51;100141.31;;;12.70;100.00
15382;BME280;7789;51.364;12.358;2024-02-16T07:18:55;100149.28;;;12.78;100.00
15382;BME280;7789;51.364;12.358;2024-02-16T07:23:59;100144.97;;;12.87;100.00
15382;BME280;7789;51.364;12.358;2024-02-16T07:29:03;100143.28;;;12.95;100.00
15382;BME280;7789;51.364;12.358;2024-02-16T07:34:07;100141.28;;;13.06;100.00
15382;BME280;7789;51.364;12.358;2024-02-16T07:39:10;100146.19;;;13.19;100.00
15382;BME280;7789;51.364;12.358;2024-02-16T07:44:17;100147.06;;;13.37;100.00
15382;BME280;7789;51.364;12.358;2024-02-16T07:49:26;100141.38;;;13.59;100.00
15382;BME280;7789;51.364;12.358;2024-02-16T07:54:30;100133.63;;;13.75;100.00
15382;BME280;7789;51.364;12.358;2024-02-16T07:59:36;100144.44;;;13.89;100.00
15382;BME280;7789;51.364;12.358;2024-02-16T08:04:39;100138.19;;;14.08;100.00
15382;BME280;7789;51.364;12.358;2024-02-16T08:09:43;100140.13;;;14.06;100.00
15382;BME280;7789;51.364;12.358;2024-02-16T08:14:51;100153.47;;;14.12;100.00
15382;BME280;7789;51.364;12.358;2024-02-16T08:19:56;100147.44;;;14.37;100.00
15382;BME280;7789;51.364;12.358;2024-02-16T08:25:00;100134.69;;;14.83;100.00
15382;BME280;7789;51.364;12.358;2024-02-16T08:30:06;100139.03;;;15.42;97.07
15382;BME280;7789;51.364;12.358;2024-02-16T08:35:12;100132.50;;;16.10;94.96
15382;BME280;7789;51.364;12.358;2024-02-16T08:40:19;100131.00;;;15.83;94.60
15382;BME280;7789;51.364;12.358;2024-02-16T08:45:24;100121.78;;;16.11;93.65
15382;BME280;7789;51.364;12.358;2024-02-16T08:50:28;100128.84;;;16.27;87.15
15382;BME280;7789;51.364;12.358;2024-02-16T08:55:31;100125.38;;;16.34;85.21
15382;BME280;7789;51.364;12.358;2024-02-16T09:00:36;100119.28;;;16.26;83.99
15382;BME280;7789;51.364;12.358;2024-02-16T09:05:41;100123.59;;;16.11;83.33
15382;BME280;7789;51.364;12.358;2024-02-16T09:10:45;100121.44;;;16.06;83.02
15382;BME280;7789;51.364;12.358;2024-02-16T09:15:53;100110.88;;;16.06;82.50
15382;BME280;7789;51.364;12.358;2024-02-16T09:20:57;100119.63;;;16.07;82.06
15382;BME280;7789;51.364;12.358;2024-02-16T09:26:00;100117.50;;;16.10;81.44
15382;BME280;7789;51.364;12.358;2024-02-16T09:31:05;100111.06;;;16.13;81.14
15382;BME280;7789;51.364;12.358;2024-02-16T09:36:10;100103.47;;;16.18;79.96
15382;BME280;7789;51.364;12.358;2024-02-16T09:41:14;100110.06;;;16.14;79.53
15382;BME280;7789;51.364;12.358;2024-02-16T09:46:21;100118.13;;;16.28;79.77
15382;BME280;7789;51.364;12.358;2024-02-16T09:51:25;100118.28;;;16.43;78.98
15382;BME280;7789;51.364;12.358;2024-02-16T09:56:29;100114.91;;;16.65;77.54
15382;BME280;7789;51.364;12.358;2024-02-16T10:01:33;100118.69;;;16.78;77.12
15382;BME280;7789;51.364;12.358;2024-02-16T10:06:45;100109.16;;;16.99;76.78
15382;BME280;7789;51.364;12.358;2024-02-16T10:11:50;100116.19;;;17.15;75.00
15382;BME280;7789;51.364;12.358;2024-02-16T10:17:02;100127.25;;;17.49;74.70
15382;BME280;7789;51.364;12.358;2024-02-16T10:22:07;100129.56;;;17.74;74.34
15382;BME280;7789;51.364;12.358;2024-02-16T10:27:14;100160.88;;;17.85;74.26
15382;BME280;7789;51.364;12.358;2024-02-16T10:32:20;100158.06;;;17.87;73.85
15382;BME280;7789;51.364;12.358;2024-02-16T10:37:25;100153.28;;;17.82;72.56
15382;BME280;7789;51.364;12.358;2024-02-16T10:42:29;100163.34;;;17.87;72.57
15382;BME280;7789;51.364;12.358;2024-02-16T10:47:36;100161.06;;;17.84;71.86
15382;BME280;7789;51.364;12.358;2024-02-16T10:52:41;100168.50;;;17.80;72.21
15382;BME280;7789;51.364;12.358;2024-02-16T10:57:46;100174.81;;;17.79;72.55
15382;BME280;7789;51.364;12.358;2024-02-16T11:02:55;100159.34;;;17.68;72.54
15382;BME280;7789;51.364;12.358;2024-02-16T11:08:03;100160.03;;;17.62;73.38
15382;BME280;7789;51.364;12.358;2024-02-16T11:13:08;100161.91;;;17.54;73.84
15382;BME280;7789;51.364;12.358;2024-02-16T11:18:14;100161.31;;;17.44;74.54
15382;BME280;7789;51.364;12.358;2024-02-16T11:23:25;100163.00;;;17.37;74.43
15382;BME280;7789;51.364;12.358;2024-02-16T11:28:34;100145.00;;;17.32;75.57
15382;BME280;7789;51.364;12.358;2024-02-16T11:33:44;100154.28;;;17.28;76.06
15382;BME280;7789;51.364;12.358;2024-02-16T11:38:48;100132.78;;;17.31;77.14
15382;BME280;7789;51.364;12.358;2024-02-16T11:43:59;100133.13;;;17.28;77.05
15382;BME280;7789;51.364;12.358;2024-02-16T11:49:08;100123.25;;;17.22;77.30
15382;BME280;7789;51.364;12.358;2024-02-16T11:54:12;100133.19;;;17.20;77.03
15382;BME280;7789;51.364;12.358;2024-02-16T11:59:18;100137.25;;;17.31;77.43
15382;BME280;7789;51.364;12.358;2024-02-16T12:04:25;100130.50;;;17.36;77.05
15382;BME280;7789;51.364;12.358;2024-02-16T12:09:28;100138.59;;;17.57;77.00
15382;BME280;7789;51.364;12.358;2024-02-16T12:14:35;100133.88;;;17.67;76.18
15382;BME280;7789;51.364;12.358;2024-02-16T12:19:44;100120.50;;;17.91;75.20
15382;BME280;7789;51.364;12.358;2024-02-16T12:24:50;100124.25;;;17.97;74.57
15382;BME280;7789;51.364;12.358;2024-02-16T12:29:57;100119.53;;;18.07;73.87
15382;BME280;7789;51.364;12.358;2024-02-16T12:35:02;100119.63;;;18.13;73.05
15382;BME280;7789;51.364;12.358;2024-02-16T12:40:08;100120.00;;;18.25;72.98
15382;BME280;7789;51.364;12.358;2024-02-16T12:45:12;100120.72;;;18.41;72.75
15382;BME280;7789;51.364;12.358;2024-02-16T12:50:17;100109.28;;;18.41;71.54
15382;BME280;7789;51.364;12.358;2024-02-16T12:55:30;100113.84;;;18.47;71.85
15382;BME280;7789;51.364;12.358;2024-02-16T13:00:34;100108.28;;;18.42;71.70
15382;BME280;7789;51.364;12.358;2024-02-16T13:05:42;100112.69;;;18.49;71.98
15382;BME280;7789;51.364;12.358;2024-02-16T13:10:49;100110.97;;;18.56;71.16
15382;BME280;7789;51.364;12.358;2024-02-16T13:16:04;100115.25;;;18.57;71.63
15382;BME280;7789;51.364;12.358;2024-02-16T13:21:09;100107.47;;;18.56;71.72
15382;BME280;7789;51.364;12.358;2024-02-16T13:26:13;100105.75;;;18.48;71.14
15382;BME280;7789;51.364;12.358;2024-02-16T13:31:20;100104.63;;;18.43;71.43
15382;BME280;7789;51.364;12.358;2024-02-16T13:36:26;100101.63;;;18.46;71.58
15382;BME280;7789;51.364;12.358;2024-02-16T13:41:30;100100.53;;;18.40;71.61
15382;BME280;7789;51.364;12.358;2024-02-16T13:46:35;100088.75;;;18.43;71.55
15382;BME280;7789;51.364;12.358;2024-02-16T13:51:40;100098.63;;;18.49;71.65
15382;BME280;7789;51.364;12.358;2024-02-16T13:56:44;100089.22;;;18.46;70.80
15382;BME280;7789;51.364;12.358;2024-02-16T14:01:51;100094.88;;;18.43;70.55
15382;BME280;7789;51.364;12.358;2024-02-16T14:06:57;100098.44;;;18.36;70.50
15382;BME280;7789;51.364;12.358;2024-02-16T14:12:01;100099.13;;;18.30;69.88
15382;BME280;7789;51.364;12.358;2024-02-16T14:17:05;100112.38;;;18.30;70.36
15382;BME280;7789;51.364;12.358;2024-02-16T14:22:13;100111.56;;;18.29;70.47
15382;BME280;7789;51.364;12.358;2024-02-16T14:27:19;100117.50;;;18.31;69.94
15382;BME280;7789;51.364;12.358;2024-02-16T14:32:23;100117.88;;;18.28;69.58
15382;BME280;7789;51.364;12.358;2024-02-16T14:37:29;100120.38;;;18.22;69.73
15382;BME280;7789;51.364;12.358;2024-02-16T14:42:32;100122.56;;;18.18;69.87
15382;BME280;7789;51.364;12.358;2024-02-16T14:47:35;100117.47;;;18.17;69.96
15382;BME280;7789;51.364;12.358;2024-02-16T14:52:41;100117.25;;;18.18;70.76
15382;BME280;7789;51.364;12.358;2024-02-16T14:57:45;100122.19;;;18.21;70.54
15382;BME280;7789;51.364;12.358;2024-02-16T15:02:48;100120.66;;;18.27;70.69
15382;BME280;7789;51.364;12.358;2024-02-16T15:07:56;100122.66;;;18.25;70.96
15382;BME280;7789;51.364;12.358;2024-02-16T15:13:00;100125.13;;;18.26;70.91
15382;BME280;7789;51.364;12.358;2024-02-16T15:18:04;100128.31;;;18.22;71.03
15382;BME280;7789;51.364;12.358;2024-02-16T15:23:09;100124.09;;;18.13;71.30
15382;BME280;7789;51.364;12.358;2024-02-16T15:28:13;100127.47;;;18.07;71.26
15382;BME280;7789;51.364;12.358;2024-02-16T15:33:19;100129.00;;;18.01;71.89
15382;BME280;7789;51.364;12.358;2024-02-16T15:38:26;100133.84;;;17.98;71.95
15382;BME280;7789;51.364;12.358;2024-02-16T15:43:29;100129.44;;;17.90;71.73
15382;BME280;7789;51.364;12.358;2024-02-16T15:48:34;100134.59;;;17.84;71.89
15382;BME280;7789;51.364;12.358;2024-02-16T15:53:39;100155.28;;;17.80;72.42
15382;BME280;7789;51.364;12.358;2024-02-16T15:58:48;100160.81;;;17.71;72.54
15382;BME280;7789;51.364;12.358;2024-02-16T16:03:53;100172.28;;;17.63;72.82
15382;BME280;7789;51.364;12.358;2024-02-16T16:09:06;100171.97;;;17.58;72.89
15382;BME280;7789;51.364;12.358;2024-02-16T16:14:11;100174.50;;;17.52;73.77
15382;BME280;7789;51.364;12.358;2024-02-16T16:19:15;100187.75;;;17.44;74.49
15382;BME280;7789;51.364;12.358;2024-02-16T16:24:25;100191.91;;;17.38;74.87
15382;BME280;7789;51.364;12.358;2024-02-16T16:29:28;100206.78;;;17.31;75.23
15382;BME280;7789;51.364;12.358;2024-02-16T16:34:32;100220.97;;;17.30;75.54
15382;BME280;7789;51.364;12.358;2024-02-16T16:39:37;100224.47;;;17.31;75.66
15382;BME280;7789;51.364;12.358;2024-02-16T16:44:40;100225.63;;;17.28;76.38
15382;BME280;7789;51.364;12.358;2024-02-16T16:49:44;100230.13;;;17.20;76.53
15382;BME280;7789;51.364;12.358;2024-02-16T16:54:52;100244.19;;;17.12;76.95
15382;BME280;7789;51.364;12.358;2024-02-16T16:59:56;100240.38;;;17.07;77.61
15382;BME280;7789;51.364;12.358;2024-02-16T17:05:03;100251.78;;;16.99;78.00
15382;BME280;7789;51.364;12.358;2024-02-16T17:10:11;100250.34;;;16.89;78.28
15382;BME280;7789;51.364;12.358;2024-02-16T17:15:15;100258.09;;;16.82;79.12
15382;BME280;7789;51.364;12.358;2024-02-16T17:20:22;100265.72;;;16.77;79.16
15382;BME280;7789;51.364;12.358;2024-02-16T17:25:29;100270.34;;;16.68;79.57
15382;BME280;7789;51.364;12.358;2024-02-16T17:30:33;100278.59;;;16.65;80.29
15382;BME280;7789;51.364;12.358;2024-02-16T17:35:36;100288.97;;;16.58;80.29
15382;BME280;7789;51.364;12.358;2024-02-16T17:40:43;100291.16;;;16.55;80.96
15382;BME280;7789;51.364;12.358;2024-02-16T17:45:46;100299.22;;;16.53;81.50
15382;BME280;7789;51.364;12.358;2024-02-16T17:50:50;100310.13;;;16.50;81.46
15382;BME280;7789;51.364;12.358;2024-02-16T17:55:55;100320.00;;;16.48;82.15
15382;BME280;7789;51.364;12.358;2024-02-16T18:01:01;100322.16;;;16.45;82.46
15382;BME280;7789;51.364;12.358;2024-02-16T18:06:07;100325.44;;;16.39;82.83
15382;BME280;7789;51.364;12.358;2024-02-16T18:11:15;100339.56;;;16.30;82.72
15382;BME280;7789;51.364;12.358;2024-02-16T18:16:19;100343.88;;;16.23;83.25
15382;BME280;7789;51.364;12.358;2024-02-16T18:21:25;100351.25;;;16.19;83.71
15382;BME280;7789;51.364;12.358;2024-02-16T18:26:30;100354.22;;;16.16;84.17
15382;BME280;7789;51.364;12.358;2024-02-16T18:31:36;100357.53;;;16.10;84.36
15382;BME280;7789;51.364;12.358;2024-02-16T18:36:43;100361.28;;;16.08;84.63
15382;BME280;7789;51.364;12.358;2024-02-16T18:41:48;100359.66;;;16.07;85.08
15382;BME280;7789;51.364;12.358;2024-02-16T18:46:52;100359.47;;;16.08;85.56
15382;BME280;7789;51.364;12.358;2024-02-16T18:51:56;100376.97;;;16.09;86.22
15382;BME280;7789;51.364;12.358;2024-02-16T18:57:00;100367.69;;;16.05;86.60
15382;BME280;7789;51.364;12.358;2024-02-16T19:02:06;100378.06;;;15.99;88.50
15382;BME280;7789;51.364;12.358;2024-02-16T19:07:10;100389.41;;;15.91;89.78
15382;BME280;7789;51.364;12.358;2024-02-16T19:12:18;100388.06;;;15.87;91.49
15382;BME280;7789;51.364;12.358;2024-02-16T19:17:22;100398.28;;;15.82;92.87
15382;BME280;7789;51.364;12.358;2024-02-16T19:22:26;100398.28;;;15.82;93.95
15382;BME280;7789;51.364;12.358;2024-02-16T19:27:37;100401.06;;;15.81;95.44
15382;BME280;7789;51.364;12.358;2024-02-16T19:32:41;100405.00;;;15.77;96.55
15382;BME280;7789;51.364;12.358;2024-02-16T19:37:48;100419.31;;;15.74;97.63
15382;BME280;7789;51.364;12.358;2024-02-16T19:42:59;100418.66;;;15.72;98.25
15382;BME280;7789;51.364;12.358;2024-02-16T19:48:11;100418.97;;;15.69;98.68
15382;BME280;7789;51.364;12.358;2024-02-16T19:53:15;100429.00;;;15.66;99.53
15382;BME280;7789;51.364;12.358;2024-02-16T19:58:20;100435.56;;;15.62;100.00
15382;BME280;7789;51.364;12.358;2024-02-16T20:03:26;100442.13;;;15.58;100.00
15382;BME280;7789;51.364;12.358;2024-02-16T20:08:30;100457.94;;;15.58;100.00
15382;BME280;7789;51.364;12.358;2024-02-16T20:13:38;100457.28;;;15.56;100.00
15382;BME280;7789;51.364;12.358;2024-02-16T20:18:42;100471.44;;;15.55;100.00
15382;BME280;7789;51.364;12.358;2024-02-16T20:23:49;100480.31;;;15.54;100.00
15382;BME280;7789;51.364;12.358;2024-02-16T20:28:53;100481.63;;;15.50;100.00
15382;BME280;7789;51.364;12.358;2024-02-16T20:33:57;100495.25;;;15.45;100.00
15382;BME280;7789;51.364;12.358;2024-02-16T20:39:00;100489.59;;;15.40;100.00
15382;BME280;7789;51.364;12.358;2024-02-16T20:44:06;100503.91;;;15.38;100.00
15382;BME280;7789;51.364;12.358;2024-02-16T20:49:10;100511.88;;;15.28;100.00
15382;BME280;7789;51.364;12.358;2024-02-16T20:54:14;100525.63;;;15.22;100.00
15382;BME280;7789;51.364;12.358;2024-02-16T20:59:19;100524.59;;;15.15;100.00
15382;BME280;7789;51.364;12.358;2024-02-16T21:04:29;100529.50;;;15.10;100.00
15382;BME280;7789;51.364;12.358;2024-02-16T21:09:35;100530.91;;;15.05;100.00
15382;BME280;7789;51.364;12.358;2024-02-16T21:14:41;100531.53;;;14.99;100.00
15382;BME280;7789;51.364;12.358;2024-02-16T21:19:48;100533.91;;;14.92;100.00
15382;BME280;7789;51.364;12.358;2024-02-16T21:24:52;100539.63;;;14.88;100.00
15382;BME280;7789;51.364;12.358;2024-02-16T21:29:57;100544.34;;;14.84;100.00
15382;BME280;7789;51.364;12.358;2024-02-16T21:35:00;100547.13;;;14.83;100.00
15382;BME280;7789;51.364;12.358;2024-02-16T21:40:05;100556.44;;;14.78;100.00
15382;BME280;7789;51.364;12.358;2024-02-16T21:45:13;100552.72;;;14.71;100.00
15382;BME280;7789;51.364;12.358;2024-02-16T21:50:17;100569.50;;;14.70;100.00
15382;BME280;7789;51.364;12.358;2024-02-16T21:55:21;100570.47;;;14.69;100.00
15382;BME280;7789;51.364;12.358;2024-02-16T22:00:27;100573.56;;;14.64;100.00
15382;BME280;7789;51.364;12.358;2024-02-16T22:05:44;100578.41;;;14.59;100.00
15382;BME280;7789;51.364;12.358;2024-02-16T22:10:49;100582.88;;;14.59;100.00
15382;BME280;7789;51.364;12.358;2024-02-16T22:15:54;100588.25;;;14.57;100.00
15382;BME280;7789;51.364;12.358;2024-02-16T22:21:01;100598.09;;;14.55;100.00
15382;BME280;7789;51.364;12.358;2024-02-16T22:26:05;100601.72;;;14.54;100.00
15382;BME280;7789;51.364;12.358;2024-02-16T22:31:12;100613.34;;;14.52;100.00
15382;BME280;7789;51.364;12.358;2024-02-16T22:36:19;100617.38;;;14.46;100.00
15382;BME280;7789;51.364;12.358;2024-02-16T22:41:22;100623.78;;;14.44;100.00
15382;BME280;7789;51.364;12.358;2024-02-16T22:46:26;100640.53;;;14.43;100.00
15382;BME280;7789;51.364;12.358;2024-02-16T22:51:31;100652.84;;;14.42;100.00
15382;BME280;7789;51.364;12.358;2024-02-16T22:56:46;100661.56;;;14.43;100.00
15382;BME280;7789;51.364;12.358;2024-02-16T23:01:54;100668.78;;;14.41;100.00
15382;BME280;7789;51.364;12.358;2024-02-16T23:06:59;100678.63;;;14.39;100.00
15382;BME280;7789;51.364;12.358;2024-02-16T23:12:04;100680.00;;;14.33;100.00
15382;BME280;7789;51.364;12.358;2024-02-16T23:17:08;100688.03;;;14.32;100.00
15382;BME280;7789;51.364;12.358;2024-02-16T23:22:13;100698.72;;;14.30;100.00
15382;BME280;7789;51.364;12.358;2024-02-16T23:27:16;100698.44;;;14.24;100.00
15382;BME280;7789;51.364;12.358;2024-02-16T23:32:20;100709.50;;;14.18;100.00
15382;BME280;7789;51.364;12.358;2024-02-16T23:37:25;100721.53;;;14.11;100.00
15382;BME280;7789;51.364;12.358;2024-02-16T23:42:29;100719.47;;;14.05;100.00
15382;BME280;7789;51.364;12.358;2024-02-16T23:47:34;100730.09;;;14.03;100.00
15382;BME280;7789;51.364;12.358;2024-02-16T23:52:40;100735.34;;;14.03;100.00
15382;BME280;7789;51.364;12.358;2024-02-16T23:57:44;100743.38;;;14.02;100.00
